Time;durP1;ratioP1;P1;durP2;ratioP2;P2;SDS_P1;SDS_P2;PMS_P1;PMS_P2;Temp;Humidity;BMP_temperature;BMP_pressure;BME280_temperature;BME280_humidity;BME280_pressure;Samples;Min_cycle;Max_cycle;Signal;HPM_P1;HPM_P2
2021/11/21 00:00:43;;;;;;;37.90;19.50;;;9.30;99.40;;;;;;5044636;28;20547;-59
2021/11/21 00:03:09;;;;;;;34.77;19.60;;;9.30;99.90;;;;;;5044012;28;20029;-58
2021/11/21 00:05:35;;;;;;;35.50;18.20;;;9.20;99.90;;;;;;5049594;28;20025;-60
2021/11/21 00:08:00;;;;;;;39.00;19.52;;;9.30;99.90;;;;;;5052734;28;20021;-59
2021/11/21 00:10:29;;;;;;;43.07;21.70;;;9.20;99.90;;;;;;5048931;28;20497;-60
2021/11/21 00:12:55;;;;;;;35.37;19.60;;;9.40;99.90;;;;;;5052453;28;20041;-58
2021/11/21 00:15:21;;;;;;;34.33;19.40;;;9.30;99.90;;;;;;5046091;28;20068;-58
2021/11/21 00:17:47;;;;;;;36.93;20.63;;;;;;;;;;5046319;28;20227;-59
2021/11/21 00:20:16;;;;;;;41.13;20.03;;;9.30;99.90;;;;;;5048389;28;20032;-60
2021/11/21 00:22:43;;;;;;;36.42;19.63;;;9.50;99.90;;;;;;5048368;28;20014;-57
2021/11/21 00:25:09;;;;;;;34.43;20.67;;;9.30;99.90;;;;;;5047378;28;20401;-59
2021/11/21 00:27:34;;;;;;;36.03;20.67;;;9.40;99.90;;;;;;5050282;28;20025;-59
2021/11/21 00:30:00;;;;;;;30.93;18.67;;;9.40;99.90;;;;;;5040117;28;20069;-60
2021/11/21 00:32:26;;;;;;;36.83;19.87;;;9.40;99.90;;;;;;5051815;28;20120;-59
2021/11/21 00:34:53;;;;;;;34.43;19.13;;;;;;;;;;5043168;28;20021;-60
2021/11/21 00:37:20;;;;;;;37.37;19.77;;;;;;;;;;5045616;28;20032;-60
2021/11/21 00:40:11;;;;;;;34.88;20.73;;;;;;;;;;5047399;28;20497;-60
2021/11/21 00:42:37;;;;;;;44.43;22.67;;;;;;;;;;5040935;28;20026;-59
2021/11/21 00:45:05;;;;;;;36.30;20.35;;;;;;;;;;5048454;28;20029;-59
2021/11/21 00:47:31;;;;;;;39.70;21.60;;;;;;;;;;5047317;28;20021;-58
2021/11/21 00:49:57;;;;;;;39.90;20.03;;;;;;;;;;5050442;28;20044;-60
2021/11/21 00:52:23;;;;;;;37.30;20.40;;;;;;;;;;5050662;28;20036;-59
2021/11/21 00:54:53;;;;;;;41.40;22.47;;;;;;;;;;5049597;28;20033;-60
2021/11/21 00:57:19;;;;;;;38.77;21.00;;;;;;;;;;5051360;28;20415;-58
2021/11/21 00:59:45;;;;;;;40.30;20.70;;;;;;;;;;5043124;28;20037;-59
2021/11/21 01:02:12;;;;;;;39.55;21.35;;;;;;;;;;5047471;28;20467;-60
2021/11/21 01:04:39;;;;;;;41.03;21.50;;;;;;;;;;5045501;28;20033;-58
2021/11/21 01:07:05;;;;;;;40.27;21.13;;;;;;;;;;5043944;28;20471;-60
2021/11/21 01:09:31;;;;;;;33.92;20.38;;;;;;;;;;5046653;28;20120;-60
2021/11/21 01:11:58;;;;;;;38.60;21.03;;;;;;;;;;5043783;28;20094;-59
2021/11/21 01:14:25;;;;;;;39.20;21.17;;;;;;;;;;5050637;28;20075;-59
2021/11/21 01:16:51;;;;;;;37.07;20.63;;;;;;;;;;5054045;28;20351;-59
2021/11/21 01:19:17;;;;;;;39.80;20.60;;;;;;;;;;5060649;28;20030;-59
2021/11/21 01:21:43;;;;;;;38.90;20.87;;;;;;;;;;5054309;28;20124;-58
2021/11/21 01:24:09;;;;;;;38.90;21.17;;;;;;;;;;5054443;28;20032;-59
2021/11/21 01:26:35;;;;;;;40.67;21.67;;;;;;;;;;5055075;28;20033;-59
2021/11/21 01:29:01;;;;;;;35.43;19.80;;;;;;;;;;5054121;28;20033;-61
2021/11/21 01:31:27;;;;;;;37.30;20.40;;;;;;;;;;5051689;28;20025;-58
2021/11/21 01:33:53;;;;;;;35.55;20.10;;;;;;;;;;5053571;28;20484;-60
2021/11/21 01:36:19;;;;;;;38.47;21.27;;;;;;;;;;5053763;28;20114;-60
2021/11/21 01:38:46;;;;;;;39.35;21.00;;;;;;;;;;5055082;28;20040;-59
2021/11/21 01:41:13;;;;;;;38.65;21.55;;;;;;;;;;5048455;28;20490;-58
2021/11/21 01:43:42;;;;;;;36.58;21.25;;;;;;;;;;5054519;28;20084;-58
2021/11/21 01:46:09;;;;;;;38.33;21.45;;;;;;;;;;5046793;28;20395;-60
2021/11/21 01:48:35;;;;;;;34.57;21.70;;;;;;;;;;5045848;28;20479;-58
2021/11/21 01:51:05;;;;;;;42.17;22.23;;;;;;;;;;5045634;28;20037;-59
2021/11/21 01:53:31;;;;;;;37.13;21.48;;;;;;;;;;5053748;28;20036;-59
2021/11/21 01:55:58;;;;;;;36.30;20.48;;;;;;;;;;5046251;28;20025;-58
2021/11/21 01:58:24;;;;;;;34.03;19.73;;;;;;;;;;5049773;28;20037;-59
2021/11/21 02:00:51;;;;;;;31.42;19.10;;;;;;;;;;5053788;28;20032;-60
2021/11/21 02:03:18;;;;;;;31.98;19.67;;;;;;;;;;5060157;28;20025;-60
2021/11/21 02:05:44;;;;;;;39.95;21.63;;;;;;;;;;5053170;28;20117;-59
2021/11/21 02:08:10;;;;;;;39.05;21.75;;;;;;;;;;5053375;28;20443;-59
2021/11/21 02:10:36;;;;;;;36.50;19.33;;;;;;;;;;5053462;28;20090;-59
2021/11/21 02:13:04;;;;;;;34.73;19.50;;;;;;;;;;5053281;28;20021;-59
2021/11/21 02:15:30;;;;;;;30.43;19.30;;;;;;;;;;5043878;28;20029;-60
2021/11/21 02:17:56;;;;;;;31.67;19.20;;;;;;;;;;5049798;28;20021;-60
2021/11/21 02:20:24;;;;;;;35.90;20.15;;;;;;;;;;5046107;28;20037;-60
2021/11/21 02:22:50;;;;;;;31.77;18.58;;;;;;;;;;5043935;28;20391;-60
2021/11/21 02:25:16;;;;;;;34.88;18.98;;;;;;;;;;5053141;28;20475;-59
2021/11/21 02:27:42;;;;;;;32.92;19.15;;;;;;;;;;5052707;28;20043;-59
2021/11/21 02:30:09;;;;;;;33.28;18.88;;;;;;;;;;5052594;28;20556;-59
2021/11/21 02:32:35;;;;;;;30.17;17.83;;;;;;;;;;5055150;28;20043;-59
2021/11/21 02:35:02;;;;;;;34.40;19.00;;;;;;;;;;5060902;28;20036;-58
2021/11/21 02:37:28;;;;;;;32.70;17.77;;;;;;;;;;5053497;28;20056;-58
2021/11/21 02:39:54;;;;;;;30.40;16.98;;;;;;;;;;5051331;28;20052;-59
2021/11/21 02:42:28;;;;;;;27.17;16.98;;;;;;;;;;5048256;28;20022;-60
2021/11/21 02:44:54;;;;;;;30.58;18.45;;;;;;;;;;5049744;28;20025;-60
2021/11/21 02:47:21;;;;;;;30.23;17.20;;;;;;;;;;5053881;28;20060;-60
2021/11/21 02:49:47;;;;;;;26.42;16.73;;;;;;;;;;5049011;28;20086;-60
2021/11/21 02:52:13;;;;;;;29.75;17.70;;;;;;;;;;5050057;28;20021;-59
2021/11/21 02:54:48;;;;;;;29.25;17.35;;;;;;;;;;5052589;28;20095;-59
2021/11/21 02:57:14;;;;;;;35.08;19.00;;;;;;;;;;5043193;28;20021;-59
2021/11/21 02:59:40;;;;;;;35.80;18.70;;;;;;;;;;5050289;28;20033;-60
2021/11/21 03:02:06;;;;;;;26.20;16.13;;;;;;;;;;5046647;28;20025;-60
2021/11/21 03:04:32;;;;;;;32.15;18.27;;;;;;;;;;5048082;28;20068;-60
2021/11/21 03:06:58;;;;;;;29.45;16.55;;;;;;;;;;5050883;28;20057;-59
2021/11/21 03:09:25;;;;;;;31.47;16.73;;;;;;;;;;5047605;28;20086;-59
2021/11/21 03:11:54;;;;;;;29.38;16.27;;;;;;;;;;5042381;28;20386;-60
2021/11/21 03:14:23;;;;;;;28.27;16.85;;;;;;;;;;5047330;28;20063;-59
2021/11/21 03:16:50;;;;;;;34.25;17.83;;;;;;;;;;5047720;28;20390;-59
2021/11/21 03:19:16;;;;;;;29.30;15.95;;;;;;;;;;5048703;28;20041;-59
2021/11/21 03:21:42;;;;;;;28.25;15.73;;;;;;;;;;5048789;28;20029;-59
2021/11/21 03:24:08;;;;;;;29.00;16.00;;;;;;;;;;5048973;28;20084;-60
2021/11/21 03:26:34;;;;;;;24.23;15.45;;;;;;;;;;5040149;28;20033;-60
2021/11/21 03:29:00;;;;;;;30.58;16.48;;;;;;;;;;5038692;28;20041;-59
2021/11/21 03:31:26;;;;;;;31.60;16.87;;;;;;;;;;5052185;28;20032;-60
2021/11/21 03:33:52;;;;;;;30.10;17.05;;;;;;;;;;5052768;28;20409;-59
2021/11/21 03:36:18;;;;;;;39.30;19.88;;;;;;;;;;5043557;28;20517;-60
2021/11/21 03:38:45;;;;;;;33.40;19.33;;;;;;;;;;5052681;28;20035;-59
2021/11/21 03:41:11;;;;;;;30.47;17.37;;;;;;;;;;5050398;28;20485;-60
2021/11/21 03:43:37;;;;;;;25.30;17.03;;;;;;;;;;5057124;28;20032;-59
2021/11/21 03:46:03;;;;;;;26.57;15.83;;;;;;;;;;5055853;28;20040;-60
2021/11/21 03:48:29;;;;;;;26.38;15.95;;;;;;;;;;5043758;28;20036;-60
2021/11/21 03:50:55;;;;;;;28.73;17.30;;;;;;;;;;5047654;28;20037;-59
2021/11/21 03:53:21;;;;;;;33.10;17.40;;;;;;;;;;5050634;28;20146;-59
2021/11/21 03:55:47;;;;;;;29.80;16.25;;;;;;;;;;5039151;28;20497;-59
2021/11/21 03:58:13;;;;;;;33.05;18.20;;;;;;;;;;5046404;28;20070;-59
2021/11/21 04:00:45;;;;;;;27.20;16.10;;;;;;;;;;5043671;28;20025;-59
2021/11/21 04:03:11;;;;;;;30.27;17.30;;;;;;;;;;5038007;28;20121;-59
2021/11/21 04:05:37;;;;;;;30.63;17.80;;;;;;;;;;5048916;28;20071;-59
2021/11/21 04:08:03;;;;;;;32.70;16.30;;;;;;;;;;5045764;28;20478;-59
2021/11/21 04:10:30;;;;;;;26.17;17.10;;;8.80;99.90;;;;;;5046519;28;20046;-59
2021/11/21 04:12:57;;;;;;;29.40;17.30;;;9.00;99.90;;;;;;5050106;28;20032;-59
2021/11/21 04:15:23;;;;;;;28.07;16.33;;;;;;;;;;5050461;28;20362;-60
2021/11/21 04:17:48;;;;;;;31.83;17.97;;;8.90;93.50;;;;;;5050049;28;20072;-60
2021/11/21 04:20:14;;;;;;;28.23;16.63;;;9.10;93.80;;;;;;5046232;28;20548;-60
2021/11/21 04:22:40;;;;;;;30.40;17.20;;;9.00;93.10;;;;;;5042940;28;20025;-59
2021/11/21 04:25:07;;;;;;;29.70;16.87;;;9.00;93.60;;;;;;5051340;28;20025;-59
2021/11/21 04:27:33;;;;;;;28.33;17.55;;;9.10;93.30;;;;;;5050101;28;20482;-60
2021/11/21 04:29:59;;;;;;;28.10;17.30;;;9.10;93.20;;;;;;5048569;28;20033;-60
2021/11/21 04:32:25;;;;;;;34.23;17.30;;;9.10;93.20;;;;;;5048228;28;20124;-60
2021/11/21 04:34:50;;;;;;;28.50;18.20;;;9.00;92.50;;;;;;5049692;28;20522;-59
2021/11/21 04:37:17;;;;;;;31.73;18.43;;;9.00;93.30;;;;;;5049018;28;20021;-60
2021/11/21 04:39:43;;;;;;;29.92;18.02;;;8.90;93.50;;;;;;5050502;28;20021;-59
2021/11/21 04:42:09;;;;;;;30.40;17.30;;;8.90;93.50;;;;;;5048053;28;20033;-59
2021/11/21 04:44:34;;;;;;;31.57;18.20;;;8.80;94.00;;;;;;5050307;28;20067;-60
2021/11/21 04:47:00;;;;;;;28.53;17.00;;;8.80;93.90;;;;;;5041427;28;20090;-60
2021/11/21 04:49:26;;;;;;;32.27;18.00;;;;;;;;;;5034607;28;20076;-61
2021/11/21 04:51:52;;;;;;;29.57;18.47;;;8.70;92.00;;;;;;5056147;28;20021;-58
2021/11/21 04:54:18;;;;;;;31.33;17.93;;;8.80;92.00;;;;;;5058216;28;20170;-59
2021/11/21 04:56:46;;;;;;;34.57;19.60;;;8.90;91.80;;;;;;5053878;28;20067;-60
2021/11/21 04:59:15;;;;;;;32.30;18.67;;;8.90;91.50;;;;;;5052620;28;20528;-58
2021/11/21 05:01:41;;;;;;;30.33;17.97;;;8.70;91.80;;;;;;5052850;28;20024;-60
2021/11/21 05:04:07;;;;;;;42.90;19.50;;;8.60;91.70;;;;;;5055424;28;20159;-60
2021/11/21 05:06:33;;;;;;;32.50;19.57;;;8.50;92.30;;;;;;5054553;28;20096;-59
2021/11/21 05:09:01;;;;;;;38.03;19.83;;;8.70;91.90;;;;;;5055024;28;20506;-59
2021/11/21 05:11:54;;;;;;;37.23;20.37;;;8.70;91.30;;;;;;5054593;28;20108;-59
2021/11/21 05:14:21;;;;;;;35.20;20.03;;;8.50;91.50;;;;;;5041600;28;20045;-60
2021/11/21 05:16:47;;;;;;;31.97;18.50;;;8.60;91.50;;;;;;5053456;28;20021;-59
2021/11/21 05:19:13;;;;;;;36.63;20.43;;;8.70;91.00;;;;;;5051206;28;20028;-59
2021/11/21 05:21:39;;;;;;;36.40;19.93;;;8.60;91.80;;;;;;5048091;28;20149;-59
2021/11/21 05:24:05;;;;;;;34.63;20.03;;;8.80;91.40;;;;;;5054947;28;20025;-59
2021/11/21 05:26:30;;;;;;;35.73;20.00;;;8.90;91.40;;;;;;5051542;28;20037;-59
2021/11/21 05:28:56;;;;;;;35.78;20.65;;;8.90;90.80;;;;;;5046625;28;20416;-59
2021/11/21 05:31:22;;;;;;;37.50;21.53;;;8.80;91.10;;;;;;5046491;28;20103;-59
2021/11/21 05:33:48;;;;;;;36.37;21.13;;;8.70;91.20;;;;;;5049688;28;20414;-59
2021/11/21 05:36:16;;;;;;;39.33;20.57;;;8.80;91.10;;;;;;5043303;28;20021;-59
2021/11/21 05:38:41;;;;;;;44.60;21.37;;;8.70;91.30;;;;;;5062314;28;20079;-60
2021/11/21 05:41:07;;;;;;;35.67;20.00;;;8.90;91.10;;;;;;5048782;28;20025;-59
2021/11/21 05:43:33;;;;;;;35.70;20.80;;;8.80;90.90;;;;;;5052589;28;20044;-59
2021/11/21 05:45:59;;;;;;;35.17;21.17;;;8.50;91.80;;;;;;5054330;28;20032;-59
2021/11/21 05:48:24;;;;;;;41.60;22.52;;;8.60;91.60;;;;;;5046146;28;20025;-59
2021/11/21 05:50:50;;;;;;;36.63;21.33;;;8.80;91.60;;;;;;5043384;28;20033;-60
2021/11/21 05:53:16;;;;;;;33.58;21.27;;;8.90;91.10;;;;;;5048067;28;20124;-60
2021/11/21 05:55:41;;;;;;;36.15;21.98;;;8.80;91.00;;;;;;5049554;28;20039;-60
2021/11/21 05:58:07;;;;;;;33.57;21.13;;;8.40;92.10;;;;;;5053107;28;20078;-59
2021/11/21 06:00:33;;;;;;;35.10;20.73;;;8.60;92.00;;;;;;5050852;28;20028;-59
2021/11/21 06:02:59;;;;;;;34.53;21.00;;;8.70;91.70;;;;;;5055707;28;20028;-59
2021/11/21 06:05:26;;;;;;;34.65;20.88;;;8.60;92.00;;;;;;5051556;28;20029;-60
2021/11/21 06:07:51;;;;;;;35.40;20.35;;;8.70;91.80;;;;;;5055897;28;20159;-60
2021/11/21 06:10:17;;;;;;;37.63;21.77;;;8.60;92.10;;;;;;5044449;28;20131;-59
2021/11/21 06:12:43;;;;;;;37.90;21.10;;;8.70;91.70;;;;;;5053858;28;20108;-60
2021/11/21 06:15:10;;;;;;;34.85;20.58;;;8.70;91.60;;;;;;5053599;28;20040;-60
2021/11/21 06:17:36;;;;;;;38.10;22.13;;;8.70;91.70;;;;;;5052897;28;20036;-60
2021/11/21 06:20:04;;;;;;;36.77;21.70;;;8.70;92.00;;;;;;5054258;28;20145;-59
2021/11/21 06:22:30;;;;;;;37.70;21.27;;;8.80;91.40;;;;;;5052774;28;20064;-60
2021/11/21 06:24:56;;;;;;;39.78;21.05;;;8.70;91.50;;;;;;5052978;28;20033;-59
2021/11/21 06:27:22;;;;;;;35.43;22.40;;;8.80;91.10;;;;;;5052891;28;20375;-59
2021/11/21 06:29:47;;;;;;;38.30;22.20;;;8.70;91.20;;;;;;5047326;28;20042;-60
2021/11/21 06:32:13;;;;;;;38.50;21.47;;;8.70;91.50;;;;;;5047220;28;20041;-60
2021/11/21 06:34:39;;;;;;;38.60;22.37;;;8.80;91.30;;;;;;5051626;28;20037;-59
2021/11/21 06:37:07;;;;;;;41.37;22.70;;;8.80;91.10;;;;;;5052337;28;20029;-60
2021/11/21 06:39:33;;;;;;;43.00;23.63;;;8.70;91.00;;;;;;5046106;28;20040;-60
2021/11/21 06:41:59;;;;;;;41.07;23.00;;;8.70;90.90;;;;;;5051367;28;20494;-59
2021/11/21 06:44:26;;;;;;;39.73;22.13;;;8.70;90.90;;;;;;5047878;28;20070;-59
2021/11/21 06:46:52;;;;;;;46.63;23.70;;;8.70;90.90;;;;;;5048836;28;20041;-60
2021/11/21 06:49:18;;;;;;;39.63;23.93;;;8.80;90.90;;;;;;5049997;28;20041;-59
2021/11/21 06:51:44;;;;;;;41.53;22.80;;;8.80;90.00;;;;;;5047986;28;20108;-58
2021/11/21 06:54:11;;;;;;;44.07;23.13;;;8.80;90.90;;;;;;5060715;28;20111;-59
2021/11/21 06:56:37;;;;;;;39.50;22.87;;;8.90;90.30;;;;;;5050629;28;20067;-59
2021/11/21 06:59:03;;;;;;;39.00;22.03;;;8.60;90.70;;;;;;5051979;28;20033;-59
2021/11/21 07:01:29;;;;;;;39.93;22.93;;;8.80;90.60;;;;;;5051445;28;20036;-58
2021/11/21 07:03:54;;;;;;;39.23;22.33;;;9.00;90.60;;;;;;5043346;28;20029;-59
2021/11/21 07:06:33;;;;;;;39.57;22.90;;;9.00;90.50;;;;;;5051789;28;20048;-59
2021/11/21 07:09:00;;;;;;;39.97;22.63;;;9.00;90.20;;;;;;5051686;28;20086;-58
2021/11/21 07:11:25;;;;;;;39.43;21.67;;;9.00;90.10;;;;;;5046103;28;20367;-59
2021/11/21 07:13:51;;;;;;;37.63;23.30;;;9.10;90.40;;;;;;5049595;28;20158;-58
2021/11/21 07:16:17;;;;;;;33.80;20.90;;;9.10;90.00;;;;;;5046673;28;20026;-60
2021/11/21 07:18:43;;;;;;;31.83;20.33;;;9.10;90.30;;;;;;5048957;28;20031;-59
2021/11/21 07:21:08;;;;;;;34.87;21.70;;;9.00;90.20;;;;;;5053196;28;20075;-60
2021/11/21 07:23:34;;;;;;;34.63;19.73;;;8.90;90.10;;;;;;5044839;28;20419;-60
2021/11/21 07:26:01;;;;;;;42.30;23.33;;;8.60;90.80;;;;;;5052700;28;20040;-60
2021/11/21 07:28:27;;;;;;;35.90;21.50;;;8.80;91.00;;;;;;5066317;28;20033;-60
2021/11/21 07:30:53;;;;;;;39.73;22.53;;;8.90;90.70;;;;;;5033915;28;20515;-59
2021/11/21 07:33:19;;;;;;;40.67;23.10;;;9.00;90.60;;;;;;5051969;28;20418;-59
2021/11/21 07:35:45;;;;;;;38.37;22.90;;;9.00;90.70;;;;;;5052802;28;20040;-59
2021/11/21 07:38:10;;;;;;;41.83;23.70;;;9.20;90.50;;;;;;5050569;28;20064;-60
2021/11/21 07:40:36;;;;;;;42.00;23.07;;;9.10;90.40;;;;;;5050571;28;20025;-59
2021/11/21 07:43:01;;;;;;;40.97;23.27;;;9.00;90.60;;;;;;5050663;28;20033;-60
2021/11/21 07:45:27;;;;;;;41.60;23.30;;;9.00;90.70;;;;;;5052886;28;20386;-60
2021/11/21 07:47:53;;;;;;;38.90;22.53;;;9.00;90.50;;;;;;5045682;28;20025;-60
2021/11/21 07:50:19;;;;;;;42.90;23.30;;;9.20;90.50;;;;;;5050571;28;20040;-60
2021/11/21 07:52:45;;;;;;;37.27;22.53;;;9.00;90.20;;;;;;5046153;28;20025;-60
2021/11/21 07:55:11;;;;;;;39.00;22.50;;;8.80;91.10;;;;;;5050174;28;20398;-59
2021/11/21 07:57:36;;;;;;;37.77;22.53;;;9.00;90.90;;;;;;5053472;28;20395;-58
2021/11/21 08:00:06;;;;;;;42.87;23.87;;;9.00;90.90;;;;;;5043217;28;20033;-59
2021/11/21 08:02:32;;;;;;;41.60;24.23;;;8.90;91.10;;;;;;5050758;28;20425;-60
2021/11/21 08:04:58;;;;;;;42.20;23.63;;;9.00;91.10;;;;;;5051130;28;20115;-59
2021/11/21 08:07:23;;;;;;;38.80;23.33;;;9.10;90.50;;;;;;5048575;28;20043;-59
2021/11/21 08:09:49;;;;;;;41.97;23.73;;;9.20;90.50;;;;;;5051633;28;20103;-59
2021/11/21 08:12:15;;;;;;;41.07;24.10;;;9.30;90.60;;;;;;5048225;28;20091;-59
2021/11/21 08:14:40;;;;;;;39.70;23.88;;;9.20;90.60;;;;;;5038904;28;20092;-59
2021/11/21 08:17:06;;;;;;;44.53;24.75;;;9.20;90.50;;;;;;5044945;28;20029;-60
2021/11/21 08:19:31;;;;;;;36.57;23.73;;;9.30;90.20;;;;;;5052102;28;20215;-60
2021/11/21 08:21:57;;;;;;;41.33;23.90;;;9.20;90.20;;;;;;5045040;28;20021;-60
2021/11/21 08:24:23;;;;;;;43.03;24.60;;;9.20;90.50;;;;;;5043548;28;20033;-60
2021/11/21 08:26:48;;;;;;;42.67;24.75;;;9.20;90.60;;;;;;5045839;28;20030;-59
2021/11/21 08:29:14;;;;;;;40.13;24.07;;;9.40;90.40;;;;;;5048285;28;20041;-60
2021/11/21 08:31:42;;;;;;;44.33;25.85;;;9.30;90.40;;;;;;5055707;28;20025;-59
2021/11/21 08:34:08;;;;;;;42.53;24.73;;;9.30;90.30;;;;;;5047423;28;20032;-60
2021/11/21 08:36:34;;;;;;;44.87;24.83;;;9.30;90.30;;;;;;5050374;28;20056;-59
2021/11/21 08:39:00;;;;;;;41.60;23.98;;;9.30;90.50;;;;;;5050621;28;20328;-59
2021/11/21 08:41:26;;;;;;;42.40;25.63;;;9.30;90.60;;;;;;5049497;28;20029;-60
2021/11/21 08:43:51;;;;;;;41.80;25.25;;;9.40;90.50;;;;;;5048024;28;20027;-59
2021/11/21 08:46:18;;;;;;;46.83;26.47;;;9.50;90.40;;;;;;5049700;28;20036;-59
2021/11/21 08:48:44;;;;;;;43.20;26.48;;;9.40;89.30;;;;;;5054014;28;20048;-58
2021/11/21 08:51:10;;;;;;;42.07;25.53;;;9.30;90.60;;;;;;5055492;28;20072;-59
2021/11/21 08:53:35;;;;;;;40.97;24.02;;;9.50;90.40;;;;;;5054064;28;20025;-59
2021/11/21 08:56:01;;;;;;;41.63;25.90;;;9.60;90.00;;;;;;5054487;28;20029;-60
2021/11/21 08:58:27;;;;;;;36.70;24.33;;;9.60;89.20;;;;;;5051845;28;20025;-59
2021/11/21 09:00:52;;;;;;;42.60;26.00;;;9.60;89.10;;;;;;5052362;28;20025;-59
2021/11/21 09:03:18;;;;;;;45.35;25.77;;;9.40;89.50;;;;;;5045539;28;20111;-60
2021/11/21 09:05:44;;;;;;;48.78;25.00;;;9.50;88.40;;;;;;5053552;28;20025;-60
2021/11/21 09:08:10;;;;;;;46.40;25.67;;;9.70;88.60;;;;;;5048139;28;20033;-60
2021/11/21 09:10:36;;;;;;;44.10;25.67;;;9.50;88.00;;;;;;5054207;28;20394;-60
2021/11/21 09:13:01;;;;;;;45.08;25.98;;;9.40;88.60;;;;;;5052620;28;20028;-60
2021/11/21 09:15:27;;;;;;;45.63;24.50;;;9.40;87.40;;;;;;5053022;28;20471;-59
2021/11/21 09:17:53;;;;;;;43.13;25.80;;;9.40;89.20;;;;;;5044814;28;20024;-60
2021/11/21 09:20:25;;;;;;;45.00;26.08;;;9.30;88.10;;;;;;5049063;28;20057;-60
2021/11/21 09:22:51;;;;;;;48.65;27.42;;;9.20;89.70;;;;;;5045746;28;20104;-58
2021/11/21 09:25:17;;;;;;;49.37;26.90;;;9.40;88.60;;;;;;5052629;28;20037;-59
2021/11/21 09:27:43;;;;;;;45.92;26.95;;;9.50;88.70;;;;;;5051029;28;20040;-60
2021/11/21 09:30:10;;;;;;;43.08;26.67;;;9.60;88.30;;;;;;5054743;28;20040;-59
2021/11/21 09:32:36;;;;;;;37.08;23.45;;;9.50;88.00;;;;;;5052392;28;20041;-58
2021/11/21 09:35:03;;;;;;;45.22;26.02;;;9.70;87.90;;;;;;5052141;28;20112;-52
2021/11/21 09:37:29;;;;;;;44.35;24.70;;;9.80;86.60;;;;;;5045763;28;20029;-59
2021/11/21 09:39:55;;;;;;;40.05;24.92;;;9.70;86.00;;;;;;5052662;28;20491;-58
2021/11/21 09:42:21;;;;;;;50.00;29.10;;;9.70;86.70;;;;;;5050448;28;20029;-58
2021/11/21 09:44:46;;;;;;;58.47;32.88;;;9.70;87.60;;;;;;5036146;28;20025;-59
2021/11/21 09:47:13;;;;;;;58.13;33.90;;;9.70;86.50;;;;;;5043899;28;20478;-59
2021/11/21 09:49:40;;;;;;;58.40;34.03;;;9.80;86.20;;;;;;5052004;28;20127;-60
2021/11/21 09:52:06;;;;;;;61.65;35.08;;;9.90;86.20;;;;;;5052844;28;20025;-60
2021/11/21 09:54:31;;;;;;;63.75;36.35;;;9.80;85.10;;;;;;5051075;28;20037;-59
2021/11/21 09:56:57;;;;;;;63.10;35.60;;;9.90;86.00;;;;;;5044861;28;20025;-60
2021/11/21 09:59:50;;;;;;;58.35;34.22;;;10.00;85.10;;;;;;5049529;28;20072;-59
2021/11/21 10:02:24;;;;;;;58.92;35.03;;;10.00;84.70;;;;;;5038057;28;20041;-60
2021/11/21 10:04:52;;;;;;;62.53;35.95;;;9.70;84.70;;;;;;5046502;28;20029;-61
2021/11/21 10:07:30;;;;;;;61.58;35.47;;;9.90;85.80;;;;;;5051696;28;20021;-60
2021/11/21 10:09:58;;;;;;;58.08;32.50;;;9.90;85.10;;;;;;5043329;28;20037;-60
2021/11/21 10:12:25;;;;;;;60.97;32.88;;;10.00;85.30;;;;;;5053284;28;20387;-60
2021/11/21 10:15:03;;;;;;;57.95;32.35;;;10.10;84.70;;;;;;5042626;28;20530;-60
2021/11/21 10:17:31;;;;;;;64.05;34.33;;;10.10;84.60;;;;;;5034372;28;20504;-60
2021/11/21 10:20:21;;;;;;;61.42;32.88;;;10.00;84.60;;;;;;5052342;28;20028;-59
2021/11/21 10:22:50;;;;;;;59.88;31.85;;;9.90;84.90;;;;;;5042736;28;20379;-59
2021/11/21 10:25:39;;;;;;;62.45;33.92;;;10.10;85.00;;;;;;5052064;28;20078;-60
2021/11/21 10:28:15;;;;;;;59.80;32.38;;;10.20;83.20;;;;;;5044531;28;20029;-59
2021/11/21 10:31:05;;;;;;;57.65;32.78;;;10.10;84.20;;;;;;5052797;28;20395;-60
2021/11/21 10:33:58;;;;;;;60.80;34.45;;;10.10;83.40;;;;;;5011026;28;1143302;-59
2021/11/21 10:36:25;;;;;;;60.90;33.40;;;10.10;83.40;;;;;;5054094;28;20083;-60
2021/11/21 10:38:55;;;;;;;60.03;34.30;;;10.10;84.50;;;;;;5049866;28;20039;-60
2021/11/21 10:41:28;;;;;;;63.50;36.63;;;10.20;82.00;;;;;;5049142;28;20033;-60
2021/11/21 10:44:13;;;;;;;61.92;36.20;;;10.20;84.20;;;;;;5050678;28;20075;-59
2021/11/21 10:46:53;;;;;;;68.85;36.47;;;10.30;82.20;;;;;;5050037;28;20029;-60
2021/11/21 10:49:36;;;;;;;63.17;37.03;;;10.10;83.30;;;;;;5044787;28;20032;-60
2021/11/21 10:52:22;;;;;;;70.53;38.38;;;10.20;83.50;;;;;;5052112;28;20183;-60
2021/11/21 10:55:15;;;;;;;71.75;39.60;;;10.30;82.70;;;;;;5041123;28;20391;-61
2021/11/21 10:57:40;;;;;;;71.05;39.13;;;10.30;81.80;;;;;;5047225;28;20108;-60
2021/11/21 11:00:21;;;;;;;71.10;40.08;;;10.10;83.60;;;;;;5049781;28;20562;-60
2021/11/21 11:02:48;;;;;;;67.85;37.47;;;10.10;83.40;;;;;;5046276;28;20025;-60
2021/11/21 11:05:27;;;;;;;72.40;41.17;;;10.30;83.60;;;;;;5052788;28;20453;-60
2021/11/21 11:08:01;;;;;;;73.85;38.88;;;10.30;83.50;;;;;;5052290;28;20029;-60
2021/11/21 11:10:32;;;;;;;67.90;38.53;;;10.60;82.90;;;;;;5051063;28;20065;-60
2021/11/21 11:13:11;;;;;;;68.75;39.42;;;10.60;82.30;;;;;;5044538;28;20025;-60
2021/11/21 11:15:39;;;;;;;65.55;37.90;;;10.70;81.90;;;;;;5052875;28;20056;-60
2021/11/21 11:18:07;;;;;;;63.75;37.88;;;10.70;81.60;;;;;;5051885;28;20028;-60
2021/11/21 11:20:41;;;;;;;70.00;39.08;;;10.50;80.00;;;;;;5051551;28;20053;-60
2021/11/21 11:23:07;;;;;;;63.72;37.42;;;10.60;81.90;;;;;;5052048;28;20032;-60
2021/11/21 11:25:35;;;;;;;70.68;37.78;;;10.70;82.60;;;;;;5051430;28;20037;-60
2021/11/21 11:28:25;;;;;;;69.30;39.08;;;10.50;82.50;;;;;;5050615;28;20028;-60
2021/11/21 11:30:53;;;;;;;63.05;37.80;;;10.90;82.00;;;;;;5051315;28;20037;-60
2021/11/21 11:33:22;;;;;;;69.45;37.88;;;10.90;81.90;;;;;;5043178;28;20098;-60
2021/11/21 11:35:53;;;;;;;66.60;38.10;;;10.80;81.90;;;;;;5052230;28;20036;-59
2021/11/21 11:38:28;;;;;;;69.55;36.97;;;10.80;83.00;;;;;;5048565;28;20086;-60
2021/11/21 11:40:56;;;;;;;67.82;35.95;;;10.80;82.20;;;;;;5050144;28;20132;-60
2021/11/21 11:43:44;;;;;;;66.22;36.17;;;10.90;82.60;;;;;;5051831;28;20115;-60
2021/11/21 11:46:18;;;;;;;67.03;37.75;;;10.80;81.50;;;;;;5050070;28;20029;-60
2021/11/21 11:48:54;;;;;;;62.92;36.05;;;10.80;82.20;;;;;;5049942;28;20025;-60
2021/11/21 11:51:49;;;;;;;63.05;37.13;;;10.80;81.30;;;;;;5051073;28;20029;-60
2021/11/21 11:54:15;;;;;;;68.60;36.20;;;10.80;82.90;;;;;;5042310;28;20091;-60
2021/11/21 11:56:43;;;;;;;71.03;37.70;;;10.80;82.50;;;;;;5051226;28;20111;-60
2021/11/21 11:59:21;;;;;;;68.35;37.13;;;10.80;82.40;;;;;;5045540;28;20094;-61
2021/11/21 12:01:55;;;;;;;71.38;38.30;;;10.80;83.20;;;;;;5037997;28;20029;-59
2021/11/21 12:04:23;;;;;;;68.28;37.45;;;10.70;83.30;;;;;;5049050;28;20021;-59
2021/11/21 12:06:52;;;;;;;69.93;37.33;;;10.70;82.40;;;;;;5051137;28;20052;-59
2021/11/21 12:09:20;;;;;;;66.95;36.22;;;10.80;82.50;;;;;;5046971;28;20074;-59
2021/11/21 12:11:58;;;;;;;68.72;36.28;;;10.70;82.60;;;;;;5049179;28;20025;-60
2021/11/21 12:14:26;;;;;;;66.88;37.45;;;10.90;82.00;;;;;;5043075;28;20036;-60
2021/11/21 12:17:04;;;;;;;69.90;37.88;;;10.90;81.40;;;;;;5045947;28;20391;-61
2021/11/21 12:19:51;;;;;;;62.92;36.50;;;10.80;81.70;;;;;;5047811;28;20368;-61
2021/11/21 12:22:30;;;;;;;68.57;36.90;;;10.90;82.30;;;;;;5038401;28;20067;-60
2021/11/21 12:25:25;;;;;;;62.85;36.88;;;10.90;82.60;;;;;;5046106;28;20056;-60
2021/11/21 12:27:58;;;;;;;66.75;35.85;;;10.90;81.20;;;;;;5049718;28;20397;-60
2021/11/21 12:30:30;;;;;;;64.28;35.20;;;11.00;81.40;;;;;;5048493;28;20029;-60
2021/11/21 12:32:58;;;;;;;62.25;34.25;;;10.90;82.40;;;;;;5051827;28;20048;-60
2021/11/21 12:35:48;;;;;;;61.67;33.10;;;10.90;82.90;;;;;;5050262;28;20032;-60
2021/11/21 12:38:19;;;;;;;65.82;37.15;;;10.60;81.60;;;;;;5048576;28;20104;-60
2021/11/21 12:40:50;;;;;;;64.85;36.22;;;10.60;83.30;;;;;;5049148;28;20033;-61
2021/11/21 12:43:18;;;;;;;60.65;34.70;;;10.80;83.60;;;;;;5043550;28;20029;-60
2021/11/21 12:46:06;;;;;;;64.30;35.53;;;10.80;82.40;;;;;;5051697;28;20025;-60
2021/11/21 12:48:32;;;;;;;72.38;37.70;;;10.80;83.00;;;;;;5050057;28;20022;-60
2021/11/21 12:51:04;;;;;;;69.57;37.55;;;10.70;82.60;;;;;;5050372;28;20032;-60
2021/11/21 12:53:37;;;;;;;71.15;40.00;;;10.70;83.00;;;;;;5050801;28;20025;-60
2021/11/21 12:56:11;;;;;;;72.53;39.65;;;10.70;83.10;;;;;;5052119;28;20039;-61
2021/11/21 12:58:43;;;;;;;68.22;35.10;;;10.70;81.90;;;;;;5044162;28;20029;-60
2021/11/21 13:01:12;;;;;;;73.38;38.90;;;10.70;83.00;;;;;;5050194;28;20100;-61
2021/11/21 13:03:40;;;;;;;73.28;37.90;;;10.80;83.70;;;;;;5043497;28;20052;-61
2021/11/21 13:06:08;;;;;;;67.75;37.58;;;10.90;82.60;;;;;;5051900;28;20028;-61